sensor_id;sensor_type;location;lat;lon;timestamp;P1;durP1;ratioP1;P2;durP2;ratioP2
32172;SDS011;18679;45.190;5.722;2023-03-11T00:02:00;2.25;;;0.70;;
32172;SDS011;18679;45.190;5.722;2023-03-11T00:05:01;0.40;;;0.30;;
32172;SDS011;18679;45.190;5.722;2023-03-11T00:08:02;2.92;;;0.52;;
32172;SDS011;18679;45.190;5.722;2023-03-11T00:11:04;0.85;;;0.32;;
32172;SDS011;18679;45.190;5.722;2023-03-11T00:14:05;0.95;;;0.50;;
32172;SDS011;18679;45.190;5.722;2023-03-11T00:17:06;0.68;;;0.30;;
32172;SDS011;18679;45.190;5.722;2023-03-11T00:20:07;2.20;;;0.50;;
32172;SDS011;18679;45.190;5.722;2023-03-11T00:23:15;1.65;;;0.32;;
32172;SDS011;18679;45.190;5.722;2023-03-11T00:26:16;0.77;;;0.38;;
32172;SDS011;18679;45.190;5.722;2023-03-11T00:29:17;3.80;;;0.55;;
32172;SDS011;18679;45.190;5.722;2023-03-11T00:32:18;0.75;;;0.22;;
32172;SDS011;18679;45.190;5.722;2023-03-11T00:35:20;0.45;;;0.40;;
32172;SDS011;18679;45.190;5.722;2023-03-11T00:38:29;1.73;;;0.47;;
32172;SDS011;18679;45.190;5.722;2023-03-11T00:41:29;2.10;;;0.68;;
32172;SDS011;18679;45.190;5.722;2023-03-11T00:44:30;1.42;;;0.60;;
32172;SDS011;18679;45.190;5.722;2023-03-11T00:47:31;3.25;;;0.57;;
32172;SDS011;18679;45.190;5.722;2023-03-11T00:50:33;0.85;;;0.52;;
32172;SDS011;18679;45.190;5.722;2023-03-11T00:53:36;2.55;;;0.70;;
32172;SDS011;18679;45.190;5.722;2023-03-11T00:56:37;1.38;;;0.30;;
32172;SDS011;18679;45.190;5.722;2023-03-11T00:59:39;1.48;;;0.40;;
32172;SDS011;18679;45.190;5.722;2023-03-11T01:02:41;0.75;;;0.57;;
32172;SDS011;18679;45.190;5.722;2023-03-11T01:05:42;0.65;;;0.38;;
32172;SDS011;18679;45.190;5.722;2023-03-11T01:08:43;1.65;;;0.38;;
32172;SDS011;18679;45.190;5.722;2023-03-11T01:11:44;0.32;;;0.20;;
32172;SDS011;18679;45.190;5.722;2023-03-11T01:14:45;0.60;;;0.30;;
32172;SDS011;18679;45.190;5.722;2023-03-11T01:17:46;0.70;;;0.40;;
32172;SDS011;18679;45.190;5.722;2023-03-11T01:20:46;0.20;;;0.20;;
32172;SDS011;18679;45.190;5.722;2023-03-11T01:23:48;1.17;;;0.30;;
32172;SDS011;18679;45.190;5.722;2023-03-11T01:26:49;1.88;;;0.57;;
32172;SDS011;18679;45.190;5.722;2023-03-11T01:29:50;0.68;;;0.20;;
32172;SDS011;18679;45.190;5.722;2023-03-11T01:32:51;0.70;;;0.22;;
32172;SDS011;18679;45.190;5.722;2023-03-11T01:35:53;0.60;;;0.40;;
32172;SDS011;18679;45.190;5.722;2023-03-11T01:38:54;1.27;;;0.47;;
32172;SDS011;18679;45.190;5.722;2023-03-11T01:41:55;1.65;;;0.30;;
32172;SDS011;18679;45.190;5.722;2023-03-11T01:44:56;1.25;;;0.57;;
32172;SDS011;18679;45.190;5.722;2023-03-11T01:47:57;1.65;;;0.45;;
32172;SDS011;18679;45.190;5.722;2023-03-11T01:50:58;0.50;;;0.30;;
32172;SDS011;18679;45.190;5.722;2023-03-11T01:54:03;1.23;;;0.57;;
32172;SDS011;18679;45.190;5.722;2023-03-11T01:57:09;1.80;;;0.50;;
32172;SDS011;18679;45.190;5.722;2023-03-11T02:00:13;0.40;;;0.35;;
32172;SDS011;18679;45.190;5.722;2023-03-11T02:03:19;13.10;;;0.50;;
32172;SDS011;18679;45.190;5.722;2023-03-11T02:06:25;0.50;;;0.30;;
32172;SDS011;18679;45.190;5.722;2023-03-11T02:09:27;1.25;;;0.47;;
32172;SDS011;18679;45.190;5.722;2023-03-11T02:12:28;2.95;;;0.47;;
32172;SDS011;18679;45.190;5.722;2023-03-11T02:15:33;0.43;;;0.40;;
32172;SDS011;18679;45.190;5.722;2023-03-11T02:18:35;1.38;;;0.40;;
32172;SDS011;18679;45.190;5.722;2023-03-11T02:21:37;3.95;;;0.35;;
32172;SDS011;18679;45.190;5.722;2023-03-11T02:24:42;0.63;;;0.43;;
32172;SDS011;18679;45.190;5.722;2023-03-11T02:27:49;0.20;;;0.20;;
32172;SDS011;18679;45.190;5.722;2023-03-11T02:30:55;1.15;;;0.30;;
32172;SDS011;18679;45.190;5.722;2023-03-11T02:33:58;1.27;;;0.60;;
32172;SDS011;18679;45.190;5.722;2023-03-11T02:37:05;1.80;;;0.50;;
32172;SDS011;18679;45.190;5.722;2023-03-11T02:43:22;0.73;;;0.40;;
32172;SDS011;18679;45.190;5.722;2023-03-11T02:46:29;4.18;;;0.47;;
32172;SDS011;18679;45.190;5.722;2023-03-11T02:49:30;0.68;;;0.30;;
32172;SDS011;18679;45.190;5.722;2023-03-11T02:52:33;2.05;;;0.63;;
32172;SDS011;18679;45.190;5.722;2023-03-11T02:55:35;0.40;;;0.40;;
32172;SDS011;18679;45.190;5.722;2023-03-11T02:58:36;0.40;;;0.32;;
32172;SDS011;18679;45.190;5.722;2023-03-11T03:01:37;1.98;;;0.57;;
32172;SDS011;18679;45.190;5.722;2023-03-11T03:04:38;1.23;;;0.50;;
32172;SDS011;18679;45.190;5.722;2023-03-11T03:07:39;2.15;;;0.73;;
32172;SDS011;18679;45.190;5.722;2023-03-11T03:10:40;0.52;;;0.32;;
32172;SDS011;18679;45.190;5.722;2023-03-11T03:13:41;0.50;;;0.30;;
32172;SDS011;18679;45.190;5.722;2023-03-11T03:16:42;0.45;;;0.40;;
32172;SDS011;18679;45.190;5.722;2023-03-11T03:19:43;2.60;;;0.73;;
32172;SDS011;18679;45.190;5.722;2023-03-11T03:22:46;2.47;;;0.60;;
32172;SDS011;18679;45.190;5.722;2023-03-11T03:25:50;1.83;;;0.65;;
32172;SDS011;18679;45.190;5.722;2023-03-11T03:28:51;8.52;;;1.02;;
32172;SDS011;18679;45.190;5.722;2023-03-11T03:31:52;1.02;;;0.90;;
32172;SDS011;18679;45.190;5.722;2023-03-11T03:34:54;2.33;;;0.90;;
32172;SDS011;18679;45.190;5.722;2023-03-11T03:38:05;1.60;;;0.80;;
32172;SDS011;18679;45.190;5.722;2023-03-11T03:41:07;3.58;;;1.20;;
32172;SDS011;18679;45.190;5.722;2023-03-11T03:44:11;1.50;;;1.15;;
32172;SDS011;18679;45.190;5.722;2023-03-11T03:47:12;2.25;;;1.05;;
32172;SDS011;18679;45.190;5.722;2023-03-11T03:50:15;1.00;;;0.90;;
32172;SDS011;18679;45.190;5.722;2023-03-11T03:53:18;2.92;;;1.05;;
32172;SDS011;18679;45.190;5.722;2023-03-11T03:56:20;2.05;;;1.35;;
32172;SDS011;18679;45.190;5.722;2023-03-11T03:59:21;5.07;;;1.15;;
32172;SDS011;18679;45.190;5.722;2023-03-11T04:02:26;2.72;;;1.50;;
32172;SDS011;18679;45.190;5.722;2023-03-11T04:05:29;3.42;;;1.40;;
32172;SDS011;18679;45.190;5.722;2023-03-11T04:08:30;3.78;;;1.50;;
32172;SDS011;18679;45.190;5.722;2023-03-11T04:11:31;1.40;;;1.02;;
32172;SDS011;18679;45.190;5.722;2023-03-11T04:14:33;1.77;;;1.23;;
32172;SDS011;18679;45.190;5.722;2023-03-11T04:17:35;3.03;;;1.80;;
32172;SDS011;18679;45.190;5.722;2023-03-11T04:20:37;2.85;;;1.67;;
32172;SDS011;18679;45.190;5.722;2023-03-11T04:23:38;3.00;;;1.50;;
32172;SDS011;18679;45.190;5.722;2023-03-11T04:26:40;2.97;;;1.55;;
32172;SDS011;18679;45.190;5.722;2023-03-11T04:29:46;1.80;;;1.30;;
32172;SDS011;18679;45.190;5.722;2023-03-11T04:32:47;1.95;;;0.90;;
32172;SDS011;18679;45.190;5.722;2023-03-11T04:35:48;3.60;;;1.10;;
32172;SDS011;18679;45.190;5.722;2023-03-11T04:38:51;3.95;;;1.42;;
32172;SDS011;18679;45.190;5.722;2023-03-11T04:41:52;1.95;;;0.88;;
32172;SDS011;18679;45.190;5.722;2023-03-11T04:44:56;1.45;;;0.85;;
32172;SDS011;18679;45.190;5.722;2023-03-11T04:47:57;1.10;;;0.93;;
32172;SDS011;18679;45.190;5.722;2023-03-11T04:50:58;1.13;;;0.85;;
32172;SDS011;18679;45.190;5.722;2023-03-11T04:54:00;2.75;;;1.77;;
32172;SDS011;18679;45.190;5.722;2023-03-11T04:57:03;2.08;;;1.23;;
32172;SDS011;18679;45.190;5.722;2023-03-11T05:00:04;2.58;;;1.60;;
32172;SDS011;18679;45.190;5.722;2023-03-11T05:03:09;2.38;;;1.70;;
32172;SDS011;18679;45.190;5.722;2023-03-11T05:06:10;2.25;;;1.30;;
32172;SDS011;18679;45.190;5.722;2023-03-11T05:09:11;2.92;;;1.30;;
32172;SDS011;18679;45.190;5.722;2023-03-11T05:12:13;1.25;;;0.93;;
32172;SDS011;18679;45.190;5.722;2023-03-11T05:15:19;2.53;;;1.58;;
32172;SDS011;18679;45.190;5.722;2023-03-11T05:18:20;1.30;;;1.00;;
32172;SDS011;18679;45.190;5.722;2023-03-11T05:21:22;2.03;;;1.52;;
32172;SDS011;18679;45.190;5.722;2023-03-11T05:24:23;1.40;;;0.90;;
32172;SDS011;18679;45.190;5.722;2023-03-11T05:27:28;1.85;;;1.40;;
32172;SDS011;18679;45.190;5.722;2023-03-11T05:30:30;2.10;;;1.23;;
32172;SDS011;18679;45.190;5.722;2023-03-11T05:33:32;2.65;;;1.48;;
32172;SDS011;18679;45.190;5.722;2023-03-11T05:36:35;4.22;;;2.38;;
32172;SDS011;18679;45.190;5.722;2023-03-11T05:39:36;3.40;;;1.60;;
32172;SDS011;18679;45.190;5.722;2023-03-11T05:42:38;4.00;;;1.92;;
32172;SDS011;18679;45.190;5.722;2023-03-11T05:45:41;2.05;;;1.08;;
32172;SDS011;18679;45.190;5.722;2023-03-11T05:48:44;2.83;;;1.30;;
32172;SDS011;18679;45.190;5.722;2023-03-11T05:51:46;1.33;;;0.88;;
32172;SDS011;18679;45.190;5.722;2023-03-11T05:54:48;1.40;;;1.25;;
32172;SDS011;18679;45.190;5.722;2023-03-11T05:57:52;1.50;;;1.00;;
32172;SDS011;18679;45.190;5.722;2023-03-11T06:00:53;1.55;;;0.82;;
32172;SDS011;18679;45.190;5.722;2023-03-11T06:03:54;1.38;;;0.93;;
32172;SDS011;18679;45.190;5.722;2023-03-11T06:06:55;1.63;;;1.33;;
32172;SDS011;18679;45.190;5.722;2023-03-11T06:09:58;1.17;;;0.90;;
32172;SDS011;18679;45.190;5.722;2023-03-11T06:12:59;4.47;;;1.70;;
32172;SDS011;18679;45.190;5.722;2023-03-11T06:16:04;1.35;;;0.90;;
32172;SDS011;18679;45.190;5.722;2023-03-11T06:19:06;5.63;;;1.13;;
32172;SDS011;18679;45.190;5.722;2023-03-11T06:22:11;0.65;;;0.65;;
32172;SDS011;18679;45.190;5.722;2023-03-11T06:25:12;1.80;;;0.85;;
32172;SDS011;18679;45.190;5.722;2023-03-11T06:28:15;1.40;;;0.95;;
32172;SDS011;18679;45.190;5.722;2023-03-11T06:31:19;0.93;;;0.63;;
32172;SDS011;18679;45.190;5.722;2023-03-11T06:34:23;2.17;;;1.20;;
32172;SDS011;18679;45.190;5.722;2023-03-11T06:37:25;1.27;;;1.10;;
32172;SDS011;18679;45.190;5.722;2023-03-11T06:40:26;2.17;;;1.65;;
32172;SDS011;18679;45.190;5.722;2023-03-11T06:43:27;2.13;;;1.25;;
32172;SDS011;18679;45.190;5.722;2023-03-11T06:46:29;1.85;;;1.33;;
32172;SDS011;18679;45.190;5.722;2023-03-11T06:49:30;1.17;;;0.68;;
32172;SDS011;18679;45.190;5.722;2023-03-11T06:52:31;2.00;;;1.30;;
32172;SDS011;18679;45.190;5.722;2023-03-11T06:55:33;0.95;;;0.82;;
32172;SDS011;18679;45.190;5.722;2023-03-11T06:58:35;1.50;;;1.10;;
32172;SDS011;18679;45.190;5.722;2023-03-11T07:01:38;2.20;;;0.80;;
32172;SDS011;18679;45.190;5.722;2023-03-11T07:04:41;1.63;;;1.00;;
32172;SDS011;18679;45.190;5.722;2023-03-11T07:07:42;1.50;;;0.90;;
32172;SDS011;18679;45.190;5.722;2023-03-11T07:10:43;1.20;;;1.00;;
32172;SDS011;18679;45.190;5.722;2023-03-11T07:13:44;1.30;;;0.70;;
32172;SDS011;18679;45.190;5.722;2023-03-11T07:16:46;1.08;;;0.88;;
32172;SDS011;18679;45.190;5.722;2023-03-11T07:19:55;0.95;;;0.77;;
32172;SDS011;18679;45.190;5.722;2023-03-11T07:22:56;1.00;;;0.90;;
32172;SDS011;18679;45.190;5.722;2023-03-11T07:25:56;0.98;;;0.88;;
32172;SDS011;18679;45.190;5.722;2023-03-11T07:28:58;1.50;;;0.90;;
32172;SDS011;18679;45.190;5.722;2023-03-11T07:31:59;1.00;;;0.82;;
32172;SDS011;18679;45.190;5.722;2023-03-11T07:35:00;0.80;;;0.77;;
32172;SDS011;18679;45.190;5.722;2023-03-11T07:38:00;4.88;;;0.93;;
32172;SDS011;18679;45.190;5.722;2023-03-11T07:41:01;1.67;;;0.90;;
32172;SDS011;18679;45.190;5.722;2023-03-11T07:44:03;1.45;;;1.05;;
32172;SDS011;18679;45.190;5.722;2023-03-11T07:47:04;1.38;;;1.08;;
32172;SDS011;18679;45.190;5.722;2023-03-11T07:50:06;1.40;;;0.90;;
32172;SDS011;18679;45.190;5.722;2023-03-11T07:53:07;2.13;;;1.15;;
32172;SDS011;18679;45.190;5.722;2023-03-11T07:56:09;1.30;;;1.20;;
32172;SDS011;18679;45.190;5.722;2023-03-11T07:59:12;2.67;;;1.67;;
32172;SDS011;18679;45.190;5.722;2023-03-11T08:02:12;5.10;;;1.80;;
32172;SDS011;18679;45.190;5.722;2023-03-11T08:05:13;5.72;;;1.60;;
32172;SDS011;18679;45.190;5.722;2023-03-11T08:08:14;2.70;;;1.80;;
32172;SDS011;18679;45.190;5.722;2023-03-11T08:11:16;4.95;;;2.33;;
32172;SDS011;18679;45.190;5.722;2023-03-11T08:14:18;5.07;;;2.40;;
32172;SDS011;18679;45.190;5.722;2023-03-11T08:17:19;1.40;;;1.30;;
32172;SDS011;18679;45.190;5.722;2023-03-11T08:20:21;1.38;;;0.95;;
32172;SDS011;18679;45.190;5.722;2023-03-11T08:23:22;2.17;;;0.85;;
32172;SDS011;18679;45.190;5.722;2023-03-11T08:26:23;1.05;;;0.70;;
32172;SDS011;18679;45.190;5.722;2023-03-11T08:29:24;1.88;;;0.70;;
32172;SDS011;18679;45.190;5.722;2023-03-11T08:32:25;1.05;;;0.63;;
32172;SDS011;18679;45.190;5.722;2023-03-11T08:35:30;0.47;;;0.47;;
32172;SDS011;18679;45.190;5.722;2023-03-11T08:38:31;1.15;;;0.68;;
32172;SDS011;18679;45.190;5.722;2023-03-11T08:41:32;1.65;;;0.70;;
32172;SDS011;18679;45.190;5.722;2023-03-11T08:44:33;1.05;;;0.77;;
32172;SDS011;18679;45.190;5.722;2023-03-11T08:47:34;0.65;;;0.60;;
32172;SDS011;18679;45.190;5.722;2023-03-11T08:50:39;3.53;;;0.77;;
32172;SDS011;18679;45.190;5.722;2023-03-11T08:53:42;1.80;;;0.77;;
32172;SDS011;18679;45.190;5.722;2023-03-11T08:56:43;2.63;;;1.48;;
32172;SDS011;18679;45.190;5.722;2023-03-11T08:59:44;1.00;;;0.75;;
32172;SDS011;18679;45.190;5.722;2023-03-11T09:02:45;1.45;;;0.90;;
32172;SDS011;18679;45.190;5.722;2023-03-11T09:05:46;2.13;;;1.38;;
32172;SDS011;18679;45.190;5.722;2023-03-11T09:08:47;3.10;;;0.93;;
32172;SDS011;18679;45.190;5.722;2023-03-11T09:11:48;1.20;;;0.70;;
32172;SDS011;18679;45.190;5.722;2023-03-11T09:14:49;2.33;;;0.70;;
32172;SDS011;18679;45.190;5.722;2023-03-11T09:17:50;1.58;;;0.93;;
32172;SDS011;18679;45.190;5.722;2023-03-11T09:20:52;8.90;;;3.42;;
32172;SDS011;18679;45.190;5.722;2023-03-11T09:23:57;0.82;;;0.70;;
32172;SDS011;18679;45.190;5.722;2023-03-11T09:26:59;7.43;;;1.00;;
32172;SDS011;18679;45.190;5.722;2023-03-11T09:30:00;1.00;;;0.70;;
32172;SDS011;18679;45.190;5.722;2023-03-11T09:33:01;1.92;;;0.60;;
32172;SDS011;18679;45.190;5.722;2023-03-11T09:36:02;3.55;;;1.17;;
32172;SDS011;18679;45.190;5.722;2023-03-11T09:39:03;1.73;;;0.93;;
32172;SDS011;18679;45.190;5.722;2023-03-11T09:45:35;0.50;;;0.43;;
32172;SDS011;18679;45.190;5.722;2023-03-11T09:48:46;1.65;;;0.80;;
32172;SDS011;18679;45.190;5.722;2023-03-11T09:52:13;5.43;;;2.47;;
32172;SDS011;18679;45.190;5.722;2023-03-11T09:55:26;4.97;;;2.05;;
32172;SDS011;18679;45.190;5.722;2023-03-11T09:58:37;4.57;;;1.35;;
32172;SDS011;18679;45.190;5.722;2023-03-11T10:01:42;2.47;;;1.60;;
32172;SDS011;18679;45.190;5.722;2023-03-11T10:24:46;3.08;;;1.75;;
32172;SDS011;18679;45.190;5.722;2023-03-11T10:27:53;2.97;;;1.65;;
32172;SDS011;18679;45.190;5.722;2023-03-11T10:31:06;1.47;;;1.33;;
32172;SDS011;18679;45.190;5.722;2023-03-11T10:34:26;4.15;;;1.90;;
32172;SDS011;18679;45.190;5.722;2023-03-11T10:37:38;3.95;;;2.13;;
32172;SDS011;18679;45.190;5.722;2023-03-11T10:40:44;2.60;;;2.05;;
32172;SDS011;18679;45.190;5.722;2023-03-11T10:43:54;3.63;;;2.38;;
32172;SDS011;18679;45.190;5.722;2023-03-11T10:47:04;4.07;;;2.35;;
32172;SDS011;18679;45.190;5.722;2023-03-11T10:50:07;3.90;;;2.05;;
32172;SDS011;18679;45.190;5.722;2023-03-11T10:53:16;3.47;;;2.22;;
32172;SDS011;18679;45.190;5.722;2023-03-11T10:59:32;4.15;;;2.45;;
32172;SDS011;18679;45.190;5.722;2023-03-11T11:02:54;3.25;;;2.20;;
32172;SDS011;18679;45.190;5.722;2023-03-11T11:06:03;3.03;;;2.20;;
32172;SDS011;18679;45.190;5.722;2023-03-11T11:12:18;4.15;;;2.50;;
32172;SDS011;18679;45.190;5.722;2023-03-11T11:18:32;2.30;;;1.70;;
32172;SDS011;18679;45.190;5.722;2023-03-11T11:21:39;3.97;;;2.00;;
32172;SDS011;18679;45.190;5.722;2023-03-11T11:24:49;3.92;;;2.60;;
32172;SDS011;18679;45.190;5.722;2023-03-11T11:27:57;7.75;;;3.47;;
32172;SDS011;18679;45.190;5.722;2023-03-11T11:31:05;6.65;;;2.78;;
32172;SDS011;18679;45.190;5.722;2023-03-11T11:34:33;6.85;;;2.53;;
32172;SDS011;18679;45.190;5.722;2023-03-11T11:37:36;3.45;;;2.53;;
32172;SDS011;18679;45.190;5.722;2023-03-11T11:40:39;4.20;;;2.70;;
32172;SDS011;18679;45.190;5.722;2023-03-11T11:46:45;4.20;;;2.65;;
32172;SDS011;18679;45.190;5.722;2023-03-11T11:49:55;6.07;;;3.10;;
32172;SDS011;18679;45.190;5.722;2023-03-11T11:53:03;10.45;;;4.53;;
32172;SDS011;18679;45.190;5.722;2023-03-11T11:56:12;7.50;;;4.05;;
32172;SDS011;18679;45.190;5.722;2023-03-11T11:59:16;5.88;;;3.65;;
32172;SDS011;18679;45.190;5.722;2023-03-11T12:12:44;5.95;;;3.72;;
32172;SDS011;18679;45.190;5.722;2023-03-11T12:19:25;10.80;;;5.97;;
32172;SDS011;18679;45.190;5.722;2023-03-11T12:26:21;10.63;;;5.55;;
32172;SDS011;18679;45.190;5.722;2023-03-11T12:32:35;8.50;;;4.13;;
32172;SDS011;18679;45.190;5.722;2023-03-11T12:35:42;6.68;;;3.40;;
32172;SDS011;18679;45.190;5.722;2023-03-11T12:38:53;7.57;;;4.07;;
32172;SDS011;18679;45.190;5.722;2023-03-11T12:45:47;7.22;;;3.17;;
32172;SDS011;18679;45.190;5.722;2023-03-11T12:49:13;7.97;;;3.70;;
32172;SDS011;18679;45.190;5.722;2023-03-11T12:55:27;3.35;;;2.30;;
32172;SDS011;18679;45.190;5.722;2023-03-11T12:58:50;3.92;;;2.67;;
32172;SDS011;18679;45.190;5.722;2023-03-11T13:08:49;7.78;;;3.20;;
32172;SDS011;18679;45.190;5.722;2023-03-11T13:11:54;3.13;;;2.33;;
32172;SDS011;18679;45.190;5.722;2023-03-11T13:18:36;5.82;;;3.75;;
32172;SDS011;18679;45.190;5.722;2023-03-11T13:21:37;4.35;;;2.83;;
32172;SDS011;18679;45.190;5.722;2023-03-11T13:24:47;6.50;;;2.65;;
32172;SDS011;18679;45.190;5.722;2023-03-11T13:27:49;7.38;;;4.55;;
32172;SDS011;18679;45.190;5.722;2023-03-11T13:38:12;38.13;;;18.67;;
32172;SDS011;18679;45.190;5.722;2023-03-11T13:41:26;19.38;;;9.65;;
32172;SDS011;18679;45.190;5.722;2023-03-11T13:44:35;9.60;;;5.70;;
32172;SDS011;18679;45.190;5.722;2023-03-11T13:47:40;9.73;;;5.93;;
32172;SDS011;18679;45.190;5.722;2023-03-11T13:57:37;24.08;;;8.38;;
32172;SDS011;18679;45.190;5.722;2023-03-11T14:00:38;7.30;;;3.90;;
32172;SDS011;18679;45.190;5.722;2023-03-11T14:03:50;6.07;;;2.97;;
32172;SDS011;18679;45.190;5.722;2023-03-11T14:06:51;1.92;;;0.82;;
32172;SDS011;18679;45.190;5.722;2023-03-11T14:13:18;1.38;;;0.50;;
32172;SDS011;18679;45.190;5.722;2023-03-11T14:16:21;0.47;;;0.40;;
32172;SDS011;18679;45.190;5.722;2023-03-11T14:19:34;3.28;;;1.50;;
32172;SDS011;18679;45.190;5.722;2023-03-11T14:22:36;4.75;;;2.40;;
32172;SDS011;18679;45.190;5.722;2023-03-11T14:25:37;3.88;;;2.67;;
32172;SDS011;18679;45.190;5.722;2023-03-11T14:28:41;6.25;;;3.40;;
32172;SDS011;18679;45.190;5.722;2023-03-11T14:31:45;4.05;;;3.22;;
32172;SDS011;18679;45.190;5.722;2023-03-11T14:34:46;3.60;;;2.75;;
32172;SDS011;18679;45.190;5.722;2023-03-11T14:37:47;4.10;;;2.42;;
32172;SDS011;18679;45.190;5.722;2023-03-11T14:40:53;2.30;;;1.77;;
32172;SDS011;18679;45.190;5.722;2023-03-11T14:43:56;2.72;;;1.90;;
32172;SDS011;18679;45.190;5.722;2023-03-11T14:47:01;3.55;;;1.45;;
32172;SDS011;18679;45.190;5.722;2023-03-11T14:50:11;3.05;;;1.23;;
32172;SDS011;18679;45.190;5.722;2023-03-11T14:53:32;2.85;;;0.70;;
32172;SDS011;18679;45.190;5.722;2023-03-11T14:56:43;0.50;;;0.40;;
32172;SDS011;18679;45.190;5.722;2023-03-11T14:59:50;0.73;;;0.55;;
32172;SDS011;18679;45.190;5.722;2023-03-11T15:06:17;0.80;;;0.50;;
32172;SDS011;18679;45.190;5.722;2023-03-11T15:09:22;1.92;;;0.45;;
32172;SDS011;18679;45.190;5.722;2023-03-11T15:12:31;1.15;;;0.88;;
32172;SDS011;18679;45.190;5.722;2023-03-11T15:15:37;1.33;;;0.65;;
32172;SDS011;18679;45.190;5.722;2023-03-11T15:18:38;1.20;;;0.47;;
32172;SDS011;18679;45.190;5.722;2023-03-11T15:21:45;2.38;;;1.02;;
32172;SDS011;18679;45.190;5.722;2023-03-11T15:24:51;4.65;;;2.50;;
32172;SDS011;18679;45.190;5.722;2023-03-11T15:27:55;5.43;;;3.13;;
32172;SDS011;18679;45.190;5.722;2023-03-11T15:34:29;5.15;;;3.40;;
32172;SDS011;18679;45.190;5.722;2023-03-11T15:37:31;1.15;;;0.88;;
32172;SDS011;18679;45.190;5.722;2023-03-11T15:40:33;2.28;;;1.00;;
32172;SDS011;18679;45.190;5.722;2023-03-11T15:44:13;1.42;;;0.80;;
32172;SDS011;18679;45.190;5.722;2023-03-11T15:47:03;2.38;;;0.40;;
32172;SDS011;18679;45.190;5.722;2023-03-11T15:50:11;0.50;;;0.50;;
32172;SDS011;18679;45.190;5.722;2023-03-11T15:53:35;1.10;;;0.80;;
32172;SDS011;18679;45.190;5.722;2023-03-11T15:56:42;0.65;;;0.50;;
32172;SDS011;18679;45.190;5.722;2023-03-11T15:59:44;1.63;;;0.55;;
32172;SDS011;18679;45.190;5.722;2023-03-11T16:02:45;0.68;;;0.50;;
32172;SDS011;18679;45.190;5.722;2023-03-11T16:05:50;0.70;;;0.70;;
32172;SDS011;18679;45.190;5.722;2023-03-11T16:09:00;0.43;;;0.43;;
32172;SDS011;18679;45.190;5.722;2023-03-11T16:12:01;1.37;;;0.63;;
32172;SDS011;18679;45.190;5.722;2023-03-11T16:18:28;1.40;;;0.80;;
32172;SDS011;18679;45.190;5.722;2023-03-11T16:21:32;0.50;;;0.50;;
32172;SDS011;18679;45.190;5.722;2023-03-11T16:24:35;0.85;;;0.65;;
32172;SDS011;18679;45.190;5.722;2023-03-11T16:27:37;0.75;;;0.57;;
32172;SDS011;18679;45.190;5.722;2023-03-11T16:30:41;0.52;;;0.45;;
32172;SDS011;18679;45.190;5.722;2023-03-11T16:33:53;1.10;;;0.30;;
32172;SDS011;18679;45.190;5.722;2023-03-11T16:37:06;1.23;;;0.60;;
32172;SDS011;18679;45.190;5.722;2023-03-11T16:40:15;1.67;;;0.65;;
32172;SDS011;18679;45.190;5.722;2023-03-11T16:43:33;1.45;;;0.75;;
32172;SDS011;18679;45.190;5.722;2023-03-11T16:46:34;7.45;;;2.33;;
32172;SDS011;18679;45.190;5.722;2023-03-11T16:49:41;9.10;;;3.50;;
32172;SDS011;18679;45.190;5.722;2023-03-11T16:52:42;11.10;;;4.93;;
32172;SDS011;18679;45.190;5.722;2023-03-11T16:55:43;5.07;;;3.38;;
32172;SDS011;18679;45.190;5.722;2023-03-11T16:58:45;1.85;;;0.93;;
32172;SDS011;18679;45.190;5.722;2023-03-11T17:01:49;2.65;;;0.93;;
32172;SDS011;18679;45.190;5.722;2023-03-11T17:04:49;3.13;;;0.88;;
32172;SDS011;18679;45.190;5.722;2023-03-11T17:07:54;3.03;;;1.10;;
32172;SDS011;18679;45.190;5.722;2023-03-11T17:10:59;2.28;;;1.20;;
32172;SDS011;18679;45.190;5.722;2023-03-11T17:14:00;1.95;;;1.20;;
32172;SDS011;18679;45.190;5.722;2023-03-11T17:17:01;7.50;;;2.47;;
32172;SDS011;18679;45.190;5.722;2023-03-11T17:20:02;4.25;;;2.63;;
32172;SDS011;18679;45.190;5.722;2023-03-11T17:23:06;4.75;;;1.63;;
32172;SDS011;18679;45.190;5.722;2023-03-11T17:26:08;1.30;;;0.85;;
32172;SDS011;18679;45.190;5.722;2023-03-11T17:29:10;1.42;;;0.80;;
32172;SDS011;18679;45.190;5.722;2023-03-11T17:32:11;0.98;;;0.70;;
32172;SDS011;18679;45.190;5.722;2023-03-11T17:35:15;3.42;;;2.00;;
32172;SDS011;18679;45.190;5.722;2023-03-11T17:38:16;6.00;;;3.80;;
32172;SDS011;18679;45.190;5.722;2023-03-11T17:41:17;8.90;;;4.43;;
32172;SDS011;18679;45.190;5.722;2023-03-11T17:44:18;6.43;;;4.15;;
32172;SDS011;18679;45.190;5.722;2023-03-11T17:47:19;13.82;;;4.38;;
32172;SDS011;18679;45.190;5.722;2023-03-11T17:50:25;7.97;;;5.20;;
32172;SDS011;18679;45.190;5.722;2023-03-11T17:53:26;11.20;;;4.85;;
32172;SDS011;18679;45.190;5.722;2023-03-11T17:56:27;6.38;;;3.83;;
32172;SDS011;18679;45.190;5.722;2023-03-11T17:59:28;7.85;;;4.03;;
32172;SDS011;18679;45.190;5.722;2023-03-11T18:02:29;5.20;;;3.47;;
32172;SDS011;18679;45.190;5.722;2023-03-11T18:05:30;4.72;;;2.63;;
32172;SDS011;18679;45.190;5.722;2023-03-11T18:08:32;2.80;;;2.03;;
32172;SDS011;18679;45.190;5.722;2023-03-11T18:11:34;6.72;;;3.45;;
32172;SDS011;18679;45.190;5.722;2023-03-11T18:14:35;3.92;;;2.45;;
32172;SDS011;18679;45.190;5.722;2023-03-11T18:17:36;6.32;;;3.60;;
32172;SDS011;18679;45.190;5.722;2023-03-11T18:20:37;9.95;;;4.85;;
32172;SDS011;18679;45.190;5.722;2023-03-11T18:23:39;6.47;;;3.85;;
32172;SDS011;18679;45.190;5.722;2023-03-11T18:26:41;15.75;;;6.65;;
32172;SDS011;18679;45.190;5.722;2023-03-11T18:29:42;10.80;;;4.78;;
32172;SDS011;18679;45.190;5.722;2023-03-11T18:32:42;10.43;;;6.03;;
32172;SDS011;18679;45.190;5.722;2023-03-11T18:35:44;9.85;;;4.75;;
32172;SDS011;18679;45.190;5.722;2023-03-11T18:38:45;10.77;;;5.05;;
32172;SDS011;18679;45.190;5.722;2023-03-11T18:41:46;8.68;;;4.13;;
32172;SDS011;18679;45.190;5.722;2023-03-11T18:44:47;9.75;;;3.75;;
32172;SDS011;18679;45.190;5.722;2023-03-11T18:47:48;7.60;;;3.80;;
32172;SDS011;18679;45.190;5.722;2023-03-11T18:50:49;6.07;;;3.35;;
32172;SDS011;18679;45.190;5.722;2023-03-11T18:53:53;7.32;;;4.22;;
32172;SDS011;18679;45.190;5.722;2023-03-11T18:56:54;4.30;;;3.25;;
32172;SDS011;18679;45.190;5.722;2023-03-11T18:59:55;9.18;;;4.53;;
32172;SDS011;18679;45.190;5.722;2023-03-11T19:02:56;12.73;;;4.75;;
32172;SDS011;18679;45.190;5.722;2023-03-11T19:05:57;7.95;;;4.78;;
32172;SDS011;18679;45.190;5.722;2023-03-11T19:08:58;12.35;;;6.00;;
32172;SDS011;18679;45.190;5.722;2023-03-11T19:11:59;24.08;;;9.93;;
32172;SDS011;18679;45.190;5.722;2023-03-11T19:15:00;21.02;;;8.38;;
32172;SDS011;18679;45.190;5.722;2023-03-11T19:18:01;12.27;;;5.80;;
32172;SDS011;18679;45.190;5.722;2023-03-11T19:21:03;10.07;;;5.72;;
32172;SDS011;18679;45.190;5.722;2023-03-11T19:24:05;14.23;;;7.15;;
32172;SDS011;18679;45.190;5.722;2023-03-11T19:27:06;18.38;;;7.28;;
32172;SDS011;18679;45.190;5.722;2023-03-11T19:30:07;19.75;;;8.68;;
32172;SDS011;18679;45.190;5.722;2023-03-11T19:33:09;18.42;;;8.52;;
32172;SDS011;18679;45.190;5.722;2023-03-11T19:36:12;18.55;;;8.27;;
32172;SDS011;18679;45.190;5.722;2023-03-11T19:39:13;17.27;;;7.63;;
32172;SDS011;18679;45.190;5.722;2023-03-11T19:42:14;11.77;;;5.75;;
32172;SDS011;18679;45.190;5.722;2023-03-11T19:45:15;11.68;;;5.30;;
32172;SDS011;18679;45.190;5.722;2023-03-11T19:48:15;14.00;;;6.60;;
32172;SDS011;18679;45.190;5.722;2023-03-11T19:51:16;11.82;;;5.00;;
32172;SDS011;18679;45.190;5.722;2023-03-11T19:54:18;8.15;;;5.22;;
32172;SDS011;18679;45.190;5.722;2023-03-11T19:57:20;7.82;;;3.88;;
32172;SDS011;18679;45.190;5.722;2023-03-11T20:00:21;10.23;;;4.18;;
32172;SDS011;18679;45.190;5.722;2023-03-11T20:03:22;10.25;;;5.03;;
32172;SDS011;18679;45.190;5.722;2023-03-11T20:06:23;10.73;;;5.07;;
32172;SDS011;18679;45.190;5.722;2023-03-11T20:09:24;7.60;;;4.60;;